sensor_id;sensor_type;location;lat;lon;timestamp;P1;durP1;ratioP1;P2;durP2;ratioP2
25467;SDS011;13384;24.794;110.498;2022-12-18T00:02:48;31.80;;;19.90;;
25467;SDS011;13384;24.794;110.498;2022-12-18T00:05:19;36.85;;;19.67;;
25467;SDS011;13384;24.794;110.498;2022-12-18T00:07:49;38.92;;;20.73;;
25467;SDS011;13384;24.794;110.498;2022-12-18T00:10:20;32.70;;;20.30;;
25467;SDS011;13384;24.794;110.498;2022-12-18T00:12:50;33.92;;;19.50;;
25467;SDS011;13384;24.794;110.498;2022-12-18T00:15:20;30.33;;;18.52;;
25467;SDS011;13384;24.794;110.498;2022-12-18T00:17:51;32.55;;;19.05;;
25467;SDS011;13384;24.794;110.498;2022-12-18T00:20:22;29.25;;;17.48;;
25467;SDS011;13384;24.794;110.498;2022-12-18T00:22:54;31.33;;;17.85;;
25467;SDS011;13384;24.794;110.498;2022-12-18T00:25:25;32.22;;;18.33;;
25467;SDS011;13384;24.794;110.498;2022-12-18T00:27:56;31.00;;;17.70;;
25467;SDS011;13384;24.794;110.498;2022-12-18T00:30:29;30.98;;;16.98;;
25467;SDS011;13384;24.794;110.498;2022-12-18T00:33:00;26.75;;;16.40;;
25467;SDS011;13384;24.794;110.498;2022-12-18T00:35:33;27.20;;;16.42;;
25467;SDS011;13384;24.794;110.498;2022-12-18T00:38:04;28.35;;;16.77;;
25467;SDS011;13384;24.794;110.498;2022-12-18T00:40:35;30.63;;;17.05;;
25467;SDS011;13384;24.794;110.498;2022-12-18T00:43:06;25.73;;;15.25;;
25467;SDS011;13384;24.794;110.498;2022-12-18T00:45:36;27.25;;;16.63;;
25467;SDS011;13384;24.794;110.498;2022-12-18T00:48:27;26.83;;;15.52;;
25467;SDS011;13384;24.794;110.498;2022-12-18T00:51:01;26.67;;;15.82;;
25467;SDS011;13384;24.794;110.498;2022-12-18T00:53:32;26.23;;;14.73;;
25467;SDS011;13384;24.794;110.498;2022-12-18T00:56:05;24.43;;;15.07;;
25467;SDS011;13384;24.794;110.498;2022-12-18T00:58:49;29.25;;;15.68;;
25467;SDS011;13384;24.794;110.498;2022-12-18T01:01:20;27.92;;;15.48;;
25467;SDS011;13384;24.794;110.498;2022-12-18T01:03:51;27.75;;;15.30;;
25467;SDS011;13384;24.794;110.498;2022-12-18T01:06:21;25.33;;;14.95;;
25467;SDS011;13384;24.794;110.498;2022-12-18T01:08:52;24.75;;;13.40;;
25467;SDS011;13384;24.794;110.498;2022-12-18T01:11:23;24.40;;;13.95;;
25467;SDS011;13384;24.794;110.498;2022-12-18T01:13:55;23.27;;;13.07;;
25467;SDS011;13384;24.794;110.498;2022-12-18T01:16:25;24.00;;;13.55;;
25467;SDS011;13384;24.794;110.498;2022-12-18T01:18:56;20.50;;;13.60;;
25467;SDS011;13384;24.794;110.498;2022-12-18T01:21:27;23.60;;;13.35;;
25467;SDS011;13384;24.794;110.498;2022-12-18T01:23:59;22.52;;;13.07;;
25467;SDS011;13384;24.794;110.498;2022-12-18T01:26:30;25.15;;;14.38;;
25467;SDS011;13384;24.794;110.498;2022-12-18T01:29:04;26.08;;;12.57;;
25467;SDS011;13384;24.794;110.498;2022-12-18T01:31:35;23.48;;;13.00;;
25467;SDS011;13384;24.794;110.498;2022-12-18T01:34:05;25.00;;;13.70;;
25467;SDS011;13384;24.794;110.498;2022-12-18T01:36:37;24.92;;;14.23;;
25467;SDS011;13384;24.794;110.498;2022-12-18T01:39:11;21.23;;;12.63;;
25467;SDS011;13384;24.794;110.498;2022-12-18T01:41:43;23.35;;;13.02;;
25467;SDS011;13384;24.794;110.498;2022-12-18T01:50:21;22.88;;;13.07;;
25467;SDS011;13384;24.794;110.498;2022-12-18T01:53:00;23.38;;;13.43;;
25467;SDS011;13384;24.794;110.498;2022-12-18T01:55:36;22.90;;;12.60;;
25467;SDS011;13384;24.794;110.498;2022-12-18T01:58:12;24.10;;;12.48;;
25467;SDS011;13384;24.794;110.498;2022-12-18T02:00:43;21.67;;;13.05;;
25467;SDS011;13384;24.794;110.498;2022-12-18T02:03:15;23.77;;;12.95;;
25467;SDS011;13384;24.794;110.498;2022-12-18T02:06:07;20.42;;;12.43;;
25467;SDS011;13384;24.794;110.498;2022-12-18T02:11:23;26.15;;;12.38;;
25467;SDS011;13384;24.794;110.498;2022-12-18T02:28:03;22.85;;;11.35;;
25467;SDS011;13384;24.794;110.498;2022-12-18T02:30:38;22.27;;;11.80;;
25467;SDS011;13384;24.794;110.498;2022-12-18T02:33:11;22.45;;;11.77;;
25467;SDS011;13384;24.794;110.498;2022-12-18T02:35:43;22.02;;;12.52;;
25467;SDS011;13384;24.794;110.498;2022-12-18T02:38:26;25.17;;;12.23;;
25467;SDS011;13384;24.794;110.498;2022-12-18T02:41:05;21.50;;;11.60;;
25467;SDS011;13384;24.794;110.498;2022-12-18T02:43:37;23.00;;;12.48;;
25467;SDS011;13384;24.794;110.498;2022-12-18T02:46:23;23.48;;;12.35;;
25467;SDS011;13384;24.794;110.498;2022-12-18T02:52:07;21.63;;;11.88;;
25467;SDS011;13384;24.794;110.498;2022-12-18T03:03:50;20.88;;;11.50;;
25467;SDS011;13384;24.794;110.498;2022-12-18T03:06:32;19.80;;;11.43;;
25467;SDS011;13384;24.794;110.498;2022-12-18T03:09:22;21.15;;;11.52;;
25467;SDS011;13384;24.794;110.498;2022-12-18T03:14:56;19.98;;;10.90;;
25467;SDS011;13384;24.794;110.498;2022-12-18T03:17:52;21.58;;;12.02;;
25467;SDS011;13384;24.794;110.498;2022-12-18T03:20:31;21.45;;;11.40;;
25467;SDS011;13384;24.794;110.498;2022-12-18T03:25:40;20.77;;;11.43;;
25467;SDS011;13384;24.794;110.498;2022-12-18T03:28:19;21.75;;;11.40;;
25467;SDS011;13384;24.794;110.498;2022-12-18T03:30:58;20.65;;;11.00;;
25467;SDS011;13384;24.794;110.498;2022-12-18T03:33:54;23.90;;;11.30;;
25467;SDS011;13384;24.794;110.498;2022-12-18T03:36:38;22.23;;;11.07;;
25467;SDS011;13384;24.794;110.498;2022-12-18T03:39:09;21.38;;;10.60;;
25467;SDS011;13384;24.794;110.498;2022-12-18T03:44:56;19.15;;;10.68;;
25467;SDS011;13384;24.794;110.498;2022-12-18T03:47:51;23.48;;;11.70;;
25467;SDS011;13384;24.794;110.498;2022-12-18T03:50:44;20.30;;;11.00;;
25467;SDS011;13384;24.794;110.498;2022-12-18T03:53:59;20.25;;;10.50;;
25467;SDS011;13384;24.794;110.498;2022-12-18T03:57:14;20.42;;;11.05;;
25467;SDS011;13384;24.794;110.498;2022-12-18T03:59:58;23.13;;;11.35;;
25467;SDS011;13384;24.794;110.498;2022-12-18T04:02:54;21.00;;;10.25;;
25467;SDS011;13384;24.794;110.498;2022-12-18T04:05:34;19.85;;;10.25;;
25467;SDS011;13384;24.794;110.498;2022-12-18T04:08:07;22.50;;;11.80;;
25467;SDS011;13384;24.794;110.498;2022-12-18T04:10:43;16.27;;;9.57;;
25467;SDS011;13384;24.794;110.498;2022-12-18T04:13:21;20.42;;;10.98;;
25467;SDS011;13384;24.794;110.498;2022-12-18T04:15:54;22.40;;;12.30;;
25467;SDS011;13384;24.794;110.498;2022-12-18T04:18:24;20.83;;;10.70;;
25467;SDS011;13384;24.794;110.498;2022-12-18T04:20:55;21.67;;;9.80;;
25467;SDS011;13384;24.794;110.498;2022-12-18T04:23:28;19.98;;;11.02;;
25467;SDS011;13384;24.794;110.498;2022-12-18T04:25:59;19.08;;;10.07;;
25467;SDS011;13384;24.794;110.498;2022-12-18T04:28:52;18.08;;;10.15;;
25467;SDS011;13384;24.794;110.498;2022-12-18T04:31:32;19.10;;;11.05;;
25467;SDS011;13384;24.794;110.498;2022-12-18T04:34:03;19.45;;;10.40;;
25467;SDS011;13384;24.794;110.498;2022-12-18T04:36:40;21.50;;;10.85;;
25467;SDS011;13384;24.794;110.498;2022-12-18T04:39:15;20.63;;;10.55;;
25467;SDS011;13384;24.794;110.498;2022-12-18T04:41:48;19.58;;;10.07;;
25467;SDS011;13384;24.794;110.498;2022-12-18T04:44:19;17.38;;;10.48;;
25467;SDS011;13384;24.794;110.498;2022-12-18T04:46:50;21.33;;;10.02;;
25467;SDS011;13384;24.794;110.498;2022-12-18T04:49:24;24.90;;;11.65;;
25467;SDS011;13384;24.794;110.498;2022-12-18T04:51:59;20.15;;;9.75;;
25467;SDS011;13384;24.794;110.498;2022-12-18T04:54:30;19.95;;;10.82;;
25467;SDS011;13384;24.794;110.498;2022-12-18T04:57:01;20.70;;;10.30;;
25467;SDS011;13384;24.794;110.498;2022-12-18T04:59:34;19.90;;;10.83;;
25467;SDS011;13384;24.794;110.498;2022-12-18T05:02:05;20.70;;;10.60;;
25467;SDS011;13384;24.794;110.498;2022-12-18T05:04:36;18.73;;;9.77;;
25467;SDS011;13384;24.794;110.498;2022-12-18T05:07:08;21.85;;;10.73;;
25467;SDS011;13384;24.794;110.498;2022-12-18T05:09:38;21.08;;;11.65;;
25467;SDS011;13384;24.794;110.498;2022-12-18T05:12:09;20.40;;;10.00;;
25467;SDS011;13384;24.794;110.498;2022-12-18T05:14:39;21.58;;;11.48;;
25467;SDS011;13384;24.794;110.498;2022-12-18T05:17:10;18.08;;;10.20;;
25467;SDS011;13384;24.794;110.498;2022-12-18T05:19:41;16.17;;;10.48;;
25467;SDS011;13384;24.794;110.498;2022-12-18T05:22:12;19.35;;;11.20;;
25467;SDS011;13384;24.794;110.498;2022-12-18T05:24:44;18.73;;;10.38;;
25467;SDS011;13384;24.794;110.498;2022-12-18T05:27:23;23.50;;;11.45;;
25467;SDS011;13384;24.794;110.498;2022-12-18T05:29:55;19.63;;;11.02;;
25467;SDS011;13384;24.794;110.498;2022-12-18T05:32:29;21.00;;;10.98;;
25467;SDS011;13384;24.794;110.498;2022-12-18T05:35:00;18.08;;;10.32;;
25467;SDS011;13384;24.794;110.498;2022-12-18T05:37:41;21.08;;;10.68;;
25467;SDS011;13384;24.794;110.498;2022-12-18T05:40:17;19.13;;;10.35;;
25467;SDS011;13384;24.794;110.498;2022-12-18T05:42:47;21.30;;;11.20;;
25467;SDS011;13384;24.794;110.498;2022-12-18T05:45:23;26.02;;;11.45;;
25467;SDS011;13384;24.794;110.498;2022-12-18T05:47:55;27.65;;;12.57;;
25467;SDS011;13384;24.794;110.498;2022-12-18T05:50:26;25.40;;;11.57;;
25467;SDS011;13384;24.794;110.498;2022-12-18T05:53:13;22.83;;;11.23;;
25467;SDS011;13384;24.794;110.498;2022-12-18T05:55:44;20.05;;;11.57;;
25467;SDS011;13384;24.794;110.498;2022-12-18T05:58:15;21.42;;;11.07;;
25467;SDS011;13384;24.794;110.498;2022-12-18T06:00:47;19.35;;;11.63;;
25467;SDS011;13384;24.794;110.498;2022-12-18T06:03:18;24.35;;;11.90;;
25467;SDS011;13384;24.794;110.498;2022-12-18T06:05:49;24.75;;;11.43;;
25467;SDS011;13384;24.794;110.498;2022-12-18T06:08:20;22.67;;;11.73;;
25467;SDS011;13384;24.794;110.498;2022-12-18T06:10:51;25.58;;;12.35;;
25467;SDS011;13384;24.794;110.498;2022-12-18T06:15:54;22.35;;;11.00;;
25467;SDS011;13384;24.794;110.498;2022-12-18T06:18:29;20.40;;;10.75;;
25467;SDS011;13384;24.794;110.498;2022-12-18T06:21:01;22.33;;;12.05;;
25467;SDS011;13384;24.794;110.498;2022-12-18T06:23:31;24.80;;;13.13;;
25467;SDS011;13384;24.794;110.498;2022-12-18T06:26:05;21.33;;;11.75;;
25467;SDS011;13384;24.794;110.498;2022-12-18T06:28:37;22.95;;;11.38;;
25467;SDS011;13384;24.794;110.498;2022-12-18T06:31:28;23.55;;;10.57;;
25467;SDS011;13384;24.794;110.498;2022-12-18T06:34:12;21.67;;;11.67;;
25467;SDS011;13384;24.794;110.498;2022-12-18T06:36:58;22.13;;;11.00;;
25467;SDS011;13384;24.794;110.498;2022-12-18T06:39:30;22.05;;;11.77;;
25467;SDS011;13384;24.794;110.498;2022-12-18T06:42:03;22.45;;;12.05;;
25467;SDS011;13384;24.794;110.498;2022-12-18T06:44:34;19.33;;;11.05;;
25467;SDS011;13384;24.794;110.498;2022-12-18T06:47:05;23.45;;;10.88;;
25467;SDS011;13384;24.794;110.498;2022-12-18T06:49:37;28.33;;;13.88;;
25467;SDS011;13384;24.794;110.498;2022-12-18T06:52:21;21.10;;;12.50;;
25467;SDS011;13384;24.794;110.498;2022-12-18T06:54:56;24.52;;;12.77;;
25467;SDS011;13384;24.794;110.498;2022-12-18T06:57:28;20.67;;;11.23;;
25467;SDS011;13384;24.794;110.498;2022-12-18T06:59:58;24.70;;;11.77;;
25467;SDS011;13384;24.794;110.498;2022-12-18T07:02:29;23.33;;;11.50;;
25467;SDS011;13384;24.794;110.498;2022-12-18T07:05:00;20.67;;;11.32;;
25467;SDS011;13384;24.794;110.498;2022-12-18T07:07:37;20.55;;;10.90;;
25467;SDS011;13384;24.794;110.498;2022-12-18T07:10:08;19.52;;;10.85;;
25467;SDS011;13384;24.794;110.498;2022-12-18T07:12:39;20.65;;;11.23;;
25467;SDS011;13384;24.794;110.498;2022-12-18T07:15:14;24.50;;;11.30;;
25467;SDS011;13384;24.794;110.498;2022-12-18T07:17:45;24.48;;;12.15;;
25467;SDS011;13384;24.794;110.498;2022-12-18T07:20:18;24.83;;;13.75;;
25467;SDS011;13384;24.794;110.498;2022-12-18T07:22:54;24.55;;;13.25;;
25467;SDS011;13384;24.794;110.498;2022-12-18T07:25:48;19.75;;;11.57;;
25467;SDS011;13384;24.794;110.498;2022-12-18T07:28:19;25.40;;;13.27;;
25467;SDS011;13384;24.794;110.498;2022-12-18T07:30:50;21.77;;;11.60;;
25467;SDS011;13384;24.794;110.498;2022-12-18T07:33:24;21.38;;;11.13;;
25467;SDS011;13384;24.794;110.498;2022-12-18T07:35:55;20.95;;;12.10;;
25467;SDS011;13384;24.794;110.498;2022-12-18T07:38:33;22.52;;;12.80;;
25467;SDS011;13384;24.794;110.498;2022-12-18T07:41:07;26.60;;;13.43;;
25467;SDS011;13384;24.794;110.498;2022-12-18T07:43:40;22.15;;;11.88;;
25467;SDS011;13384;24.794;110.498;2022-12-18T07:46:13;23.40;;;12.32;;
25467;SDS011;13384;24.794;110.498;2022-12-18T07:48:47;19.67;;;11.75;;
25467;SDS011;13384;24.794;110.498;2022-12-18T07:51:18;24.20;;;13.57;;
25467;SDS011;13384;24.794;110.498;2022-12-18T07:53:50;21.77;;;12.07;;
25467;SDS011;13384;24.794;110.498;2022-12-18T07:56:22;22.40;;;12.18;;
25467;SDS011;13384;24.794;110.498;2022-12-18T07:58:57;25.90;;;14.07;;
25467;SDS011;13384;24.794;110.498;2022-12-18T08:01:28;20.65;;;11.55;;
25467;SDS011;13384;24.794;110.498;2022-12-18T08:04:02;21.27;;;11.55;;
25467;SDS011;13384;24.794;110.498;2022-12-18T08:06:33;28.65;;;12.63;;
25467;SDS011;13384;24.794;110.498;2022-12-18T08:09:05;18.83;;;10.98;;
25467;SDS011;13384;24.794;110.498;2022-12-18T08:11:37;23.45;;;12.35;;
25467;SDS011;13384;24.794;110.498;2022-12-18T08:14:09;19.48;;;11.20;;
25467;SDS011;13384;24.794;110.498;2022-12-18T08:16:40;27.52;;;13.20;;
25467;SDS011;13384;24.794;110.498;2022-12-18T08:19:14;20.02;;;11.98;;
25467;SDS011;13384;24.794;110.498;2022-12-18T08:21:47;21.65;;;11.15;;
25467;SDS011;13384;24.794;110.498;2022-12-18T08:24:42;25.15;;;12.98;;
25467;SDS011;13384;24.794;110.498;2022-12-18T08:27:12;23.80;;;12.43;;
25467;SDS011;13384;24.794;110.498;2022-12-18T08:29:57;21.27;;;10.98;;
25467;SDS011;13384;24.794;110.498;2022-12-18T08:32:37;21.65;;;11.35;;
25467;SDS011;13384;24.794;110.498;2022-12-18T08:35:08;23.75;;;12.38;;
25467;SDS011;13384;24.794;110.498;2022-12-18T08:37:51;21.98;;;11.77;;
25467;SDS011;13384;24.794;110.498;2022-12-18T08:40:22;26.48;;;12.77;;
25467;SDS011;13384;24.794;110.498;2022-12-18T08:42:54;23.35;;;13.65;;
25467;SDS011;13384;24.794;110.498;2022-12-18T08:45:42;21.23;;;12.18;;
25467;SDS011;13384;24.794;110.498;2022-12-18T08:48:12;23.58;;;13.05;;
25467;SDS011;13384;24.794;110.498;2022-12-18T08:50:55;22.63;;;11.73;;
25467;SDS011;13384;24.794;110.498;2022-12-18T08:53:29;22.60;;;12.57;;
25467;SDS011;13384;24.794;110.498;2022-12-18T08:56:02;18.73;;;11.38;;
25467;SDS011;13384;24.794;110.498;2022-12-18T08:58:34;18.45;;;11.05;;
25467;SDS011;13384;24.794;110.498;2022-12-18T09:01:06;22.58;;;11.77;;
25467;SDS011;13384;24.794;110.498;2022-12-18T09:03:39;24.10;;;12.95;;
25467;SDS011;13384;24.794;110.498;2022-12-18T09:06:17;19.75;;;11.20;;
25467;SDS011;13384;24.794;110.498;2022-12-18T09:09:02;20.80;;;11.30;;
25467;SDS011;13384;24.794;110.498;2022-12-18T09:11:36;22.15;;;12.02;;
25467;SDS011;13384;24.794;110.498;2022-12-18T09:14:09;22.05;;;11.52;;
25467;SDS011;13384;24.794;110.498;2022-12-18T09:16:40;18.00;;;11.38;;
25467;SDS011;13384;24.794;110.498;2022-12-18T09:19:11;22.30;;;12.23;;
25467;SDS011;13384;24.794;110.498;2022-12-18T09:21:42;24.05;;;12.43;;
25467;SDS011;13384;24.794;110.498;2022-12-18T09:24:17;20.85;;;11.55;;
25467;SDS011;13384;24.794;110.498;2022-12-18T09:26:54;19.92;;;11.15;;
25467;SDS011;13384;24.794;110.498;2022-12-18T09:29:38;17.73;;;11.02;;
25467;SDS011;13384;24.794;110.498;2022-12-18T09:32:08;21.75;;;11.02;;
25467;SDS011;13384;24.794;110.498;2022-12-18T09:34:45;18.20;;;10.88;;
25467;SDS011;13384;24.794;110.498;2022-12-18T09:37:18;19.20;;;10.70;;
25467;SDS011;13384;24.794;110.498;2022-12-18T09:39:48;22.52;;;10.95;;
25467;SDS011;13384;24.794;110.498;2022-12-18T09:42:25;18.83;;;10.70;;
25467;SDS011;13384;24.794;110.498;2022-12-18T09:44:57;20.60;;;11.35;;
25467;SDS011;13384;24.794;110.498;2022-12-18T09:47:30;23.73;;;13.00;;
25467;SDS011;13384;24.794;110.498;2022-12-18T09:53:10;23.25;;;13.20;;
25467;SDS011;13384;24.794;110.498;2022-12-18T09:55:49;19.92;;;11.85;;
25467;SDS011;13384;24.794;110.498;2022-12-18T10:04:09;25.75;;;13.93;;
25467;SDS011;13384;24.794;110.498;2022-12-18T10:06:54;25.27;;;14.65;;
25467;SDS011;13384;24.794;110.498;2022-12-18T10:12:27;44.55;;;19.95;;
25467;SDS011;13384;24.794;110.498;2022-12-18T10:15:24;38.90;;;20.02;;
25467;SDS011;13384;24.794;110.498;2022-12-18T10:20:52;53.72;;;22.20;;
25467;SDS011;13384;24.794;110.498;2022-12-18T10:23:39;56.25;;;24.08;;
25467;SDS011;13384;24.794;110.498;2022-12-18T10:26:27;52.65;;;22.98;;
25467;SDS011;13384;24.794;110.498;2022-12-18T10:28:58;49.22;;;22.65;;
25467;SDS011;13384;24.794;110.498;2022-12-18T10:31:32;53.10;;;22.58;;
25467;SDS011;13384;24.794;110.498;2022-12-18T10:34:02;49.63;;;22.38;;
25467;SDS011;13384;24.794;110.498;2022-12-18T10:36:33;51.97;;;22.13;;
25467;SDS011;13384;24.794;110.498;2022-12-18T10:39:21;47.30;;;22.10;;
25467;SDS011;13384;24.794;110.498;2022-12-18T10:44:46;51.08;;;22.58;;
25467;SDS011;13384;24.794;110.498;2022-12-18T10:48:18;50.80;;;22.95;;
25467;SDS011;13384;24.794;110.498;2022-12-18T10:50:51;54.92;;;23.98;;
25467;SDS011;13384;24.794;110.498;2022-12-18T10:53:41;56.40;;;22.92;;
25467;SDS011;13384;24.794;110.498;2022-12-18T10:56:20;49.92;;;22.77;;
25467;SDS011;13384;24.794;110.498;2022-12-18T10:58:55;53.10;;;23.75;;
25467;SDS011;13384;24.794;110.498;2022-12-18T11:01:52;53.50;;;23.17;;
25467;SDS011;13384;24.794;110.498;2022-12-18T11:04:26;61.60;;;25.08;;
25467;SDS011;13384;24.794;110.498;2022-12-18T11:07:05;46.33;;;22.67;;
25467;SDS011;13384;24.794;110.498;2022-12-18T11:09:59;52.65;;;25.02;;
25467;SDS011;13384;24.794;110.498;2022-12-18T11:12:33;52.17;;;24.15;;
25467;SDS011;13384;24.794;110.498;2022-12-18T11:15:04;48.30;;;23.45;;
25467;SDS011;13384;24.794;110.498;2022-12-18T11:18:02;50.05;;;22.92;;
25467;SDS011;13384;24.794;110.498;2022-12-18T11:20:36;56.97;;;23.63;;
25467;SDS011;13384;24.794;110.498;2022-12-18T11:23:11;55.10;;;25.15;;
25467;SDS011;13384;24.794;110.498;2022-12-18T11:25:52;50.28;;;21.90;;
25467;SDS011;13384;24.794;110.498;2022-12-18T11:28:35;53.25;;;22.88;;
25467;SDS011;13384;24.794;110.498;2022-12-18T11:31:22;49.83;;;23.27;;
25467;SDS011;13384;24.794;110.498;2022-12-18T11:36:58;51.95;;;22.65;;
25467;SDS011;13384;24.794;110.498;2022-12-18T11:39:42;48.30;;;24.67;;
25467;SDS011;13384;24.794;110.498;2022-12-18T11:45:34;44.55;;;21.90;;
25467;SDS011;13384;24.794;110.498;2022-12-18T11:48:43;53.83;;;23.42;;
25467;SDS011;13384;24.794;110.498;2022-12-18T11:54:21;48.30;;;22.02;;
25467;SDS011;13384;24.794;110.498;2022-12-18T12:00:09;51.10;;;22.88;;
25467;SDS011;13384;24.794;110.498;2022-12-18T12:03:01;48.08;;;21.73;;
25467;SDS011;13384;24.794;110.498;2022-12-18T12:11:08;46.97;;;21.55;;
25467;SDS011;13384;24.794;110.498;2022-12-18T12:17:47;45.72;;;20.50;;
25467;SDS011;13384;24.794;110.498;2022-12-18T12:20:21;42.25;;;19.73;;
25467;SDS011;13384;24.794;110.498;2022-12-18T12:41:02;42.85;;;19.60;;
25467;SDS011;13384;24.794;110.498;2022-12-18T12:43:57;45.65;;;20.67;;
25467;SDS011;13384;24.794;110.498;2022-12-18T12:46:46;41.30;;;20.45;;
25467;SDS011;13384;24.794;110.498;2022-12-18T12:49:19;41.13;;;20.10;;
25467;SDS011;13384;24.794;110.498;2022-12-18T12:52:04;39.60;;;21.17;;
25467;SDS011;13384;24.794;110.498;2022-12-18T12:54:44;42.58;;;20.38;;
25467;SDS011;13384;24.794;110.498;2022-12-18T13:07:59;40.85;;;21.08;;
25467;SDS011;13384;24.794;110.498;2022-12-18T13:10:41;41.60;;;20.23;;
25467;SDS011;13384;24.794;110.498;2022-12-18T13:13:14;35.88;;;19.42;;
25467;SDS011;13384;24.794;110.498;2022-12-18T13:16:06;39.67;;;19.60;;
25467;SDS011;13384;24.794;110.498;2022-12-18T13:18:40;42.97;;;19.67;;
25467;SDS011;13384;24.794;110.498;2022-12-18T13:24:45;37.55;;;20.23;;
25467;SDS011;13384;24.794;110.498;2022-12-18T13:26:51;47.25;;;20.30;;
25467;SDS011;13384;24.794;110.498;2022-12-18T13:29:43;39.57;;;19.23;;
25467;SDS011;13384;24.794;110.498;2022-12-18T13:32:24;39.33;;;20.05;;
25467;SDS011;13384;24.794;110.498;2022-12-18T13:37:54;37.90;;;20.40;;
25467;SDS011;13384;24.794;110.498;2022-12-18T13:48:57;36.50;;;18.42;;
25467;SDS011;13384;24.794;110.498;2022-12-18T13:51:34;35.20;;;17.95;;
25467;SDS011;13384;24.794;110.498;2022-12-18T13:56:51;39.90;;;19.70;;
25467;SDS011;13384;24.794;110.498;2022-12-18T13:59:33;36.15;;;19.20;;
25467;SDS011;13384;24.794;110.498;2022-12-18T14:02:20;37.92;;;19.02;;
25467;SDS011;13384;24.794;110.498;2022-12-18T14:04:55;35.45;;;17.83;;
25467;SDS011;13384;24.794;110.498;2022-12-18T14:07:29;42.28;;;19.45;;
25467;SDS011;13384;24.794;110.498;2022-12-18T14:10:13;35.35;;;18.20;;
25467;SDS011;13384;24.794;110.498;2022-12-18T14:13:07;36.53;;;17.88;;
25467;SDS011;13384;24.794;110.498;2022-12-18T14:20:52;35.47;;;19.33;;
25467;SDS011;13384;24.794;110.498;2022-12-18T14:29:10;35.42;;;17.90;;
25467;SDS011;13384;24.794;110.498;2022-12-18T14:32:07;35.58;;;18.60;;
25467;SDS011;13384;24.794;110.498;2022-12-18T14:34:56;33.25;;;16.63;;
25467;SDS011;13384;24.794;110.498;2022-12-18T14:37:29;34.38;;;17.95;;
25467;SDS011;13384;24.794;110.498;2022-12-18T14:40:11;30.95;;;17.83;;
25467;SDS011;13384;24.794;110.498;2022-12-18T14:42:58;31.88;;;16.85;;
25467;SDS011;13384;24.794;110.498;2022-12-18T14:45:36;34.22;;;17.83;;
25467;SDS011;13384;24.794;110.498;2022-12-18T14:48:21;29.80;;;17.05;;
25467;SDS011;13384;24.794;110.498;2022-12-18T14:53:46;32.15;;;17.42;;
25467;SDS011;13384;24.794;110.498;2022-12-18T14:56:37;36.03;;;17.77;;
25467;SDS011;13384;24.794;110.498;2022-12-18T14:59:20;30.40;;;16.53;;
25467;SDS011;13384;24.794;110.498;2022-12-18T15:05:01;33.03;;;16.10;;
25467;SDS011;13384;24.794;110.498;2022-12-18T15:08:02;33.38;;;16.20;;
25467;SDS011;13384;24.794;110.498;2022-12-18T15:10:48;31.10;;;16.50;;
25467;SDS011;13384;24.794;110.498;2022-12-18T15:13:23;30.17;;;16.83;;
25467;SDS011;13384;24.794;110.498;2022-12-18T15:15:54;32.85;;;16.73;;
25467;SDS011;13384;24.794;110.498;2022-12-18T15:18:32;31.35;;;17.35;;
25467;SDS011;13384;24.794;110.498;2022-12-18T15:21:11;30.20;;;16.20;;
25467;SDS011;13384;24.794;110.498;2022-12-18T15:23:48;32.42;;;16.00;;
25467;SDS011;13384;24.794;110.498;2022-12-18T15:26:21;28.63;;;15.98;;
25467;SDS011;13384;24.794;110.498;2022-12-18T15:28:52;30.02;;;15.68;;
25467;SDS011;13384;24.794;110.498;2022-12-18T15:31:32;30.85;;;16.95;;
25467;SDS011;13384;24.794;110.498;2022-12-18T15:34:22;27.70;;;16.30;;
25467;SDS011;13384;24.794;110.498;2022-12-18T15:36:58;29.85;;;17.08;;
25467;SDS011;13384;24.794;110.498;2022-12-18T15:39:29;31.23;;;16.95;;
25467;SDS011;13384;24.794;110.498;2022-12-18T15:42:00;34.72;;;16.35;;
25467;SDS011;13384;24.794;110.498;2022-12-18T15:44:49;28.35;;;16.40;;
25467;SDS011;13384;24.794;110.498;2022-12-18T15:47:20;30.30;;;15.82;;
25467;SDS011;13384;24.794;110.498;2022-12-18T15:49:50;31.08;;;16.08;;
25467;SDS011;13384;24.794;110.498;2022-12-18T15:52:21;29.67;;;16.38;;
25467;SDS011;13384;24.794;110.498;2022-12-18T15:54:54;25.13;;;15.38;;
25467;SDS011;13384;24.794;110.498;2022-12-18T15:57:43;29.73;;;15.48;;
25467;SDS011;13384;24.794;110.498;2022-12-18T16:00:14;25.27;;;14.88;;
25467;SDS011;13384;24.794;110.498;2022-12-18T16:02:45;31.52;;;16.27;;
25467;SDS011;13384;24.794;110.498;2022-12-18T16:05:16;29.67;;;15.95;;
25467;SDS011;13384;24.794;110.498;2022-12-18T16:07:48;30.50;;;15.35;;
25467;SDS011;13384;24.794;110.498;2022-12-18T16:10:20;27.52;;;15.38;;
25467;SDS011;13384;24.794;110.498;2022-12-18T16:12:52;29.73;;;16.00;;
25467;SDS011;13384;24.794;110.498;2022-12-18T16:15:23;25.80;;;15.13;;
25467;SDS011;13384;24.794;110.498;2022-12-18T16:17:56;27.05;;;15.00;;
25467;SDS011;13384;24.794;110.498;2022-12-18T16:20:29;26.23;;;14.73;;
25467;SDS011;13384;24.794;110.498;2022-12-18T16:23:01;27.55;;;14.73;;
25467;SDS011;13384;24.794;110.498;2022-12-18T16:25:32;26.90;;;15.25;;
25467;SDS011;13384;24.794;110.498;2022-12-18T16:28:05;28.63;;;15.65;;
25467;SDS011;13384;24.794;110.498;2022-12-18T16:30:35;30.35;;;15.45;;
25467;SDS011;13384;24.794;110.498;2022-12-18T16:33:10;27.17;;;14.65;;
25467;SDS011;13384;24.794;110.498;2022-12-18T16:35:42;33.80;;;15.07;;
25467;SDS011;13384;24.794;110.498;2022-12-18T16:38:22;25.98;;;14.02;;
25467;SDS011;13384;24.794;110.498;2022-12-18T16:40:52;28.95;;;14.95;;
25467;SDS011;13384;24.794;110.498;2022-12-18T16:44:01;26.65;;;14.90;;
25467;SDS011;13384;24.794;110.498;2022-12-18T16:46:33;27.10;;;14.45;;
25467;SDS011;13384;24.794;110.498;2022-12-18T16:49:17;23.30;;;14.30;;
25467;SDS011;13384;24.794;110.498;2022-12-18T16:51:48;27.48;;;14.55;;
25467;SDS011;13384;24.794;110.498;2022-12-18T16:54:20;28.73;;;14.65;;
25467;SDS011;13384;24.794;110.498;2022-12-18T16:56:51;23.40;;;13.82;;
25467;SDS011;13384;24.794;110.498;2022-12-18T16:59:22;25.88;;;14.23;;
25467;SDS011;13384;24.794;110.498;2022-12-18T17:01:54;26.60;;;14.40;;
25467;SDS011;13384;24.794;110.498;2022-12-18T17:04:25;25.05;;;14.05;;
25467;SDS011;13384;24.794;110.498;2022-12-18T17:06:56;24.27;;;14.65;;
25467;SDS011;13384;24.794;110.498;2022-12-18T17:09:27;26.85;;;14.45;;
25467;SDS011;13384;24.794;110.498;2022-12-18T17:12:00;24.05;;;14.20;;
25467;SDS011;13384;24.794;110.498;2022-12-18T17:14:34;26.10;;;14.27;;
25467;SDS011;13384;24.794;110.498;2022-12-18T17:17:05;25.17;;;14.45;;
25467;SDS011;13384;24.794;110.498;2022-12-18T17:19:50;25.13;;;14.15;;